Time;durP1;ratioP1;P1;durP2;ratioP2;P2;SDS_P1;SDS_P2;PMS_P1;PMS_P2;Temp;Humidity;BMP_temperature;BMP_pressure;BME280_temperature;BME280_humidity;BME280_pressure;Samples;Min_cycle;Max_cycle;Signal;HPM_P1;HPM_P2
2024/01/26 00:01:50;;;;;;;4.88;2.95;;;-0.40;99.90;;;;;;5012718;28;20033;-72
2024/01/26 00:04:16;;;;;;;7.38;2.38;;;-0.50;99.90;;;;;;4994793;28;20026;-71
2024/01/26 00:06:42;;;;;;;6.80;3.00;;;-0.50;99.90;;;;;;5012355;28;20499;-71
2024/01/26 00:09:10;;;;;;;14.82;2.97;;;-0.50;99.90;;;;;;4994676;28;20045;-72
2024/01/26 00:11:37;;;;;;;8.50;2.58;;;-0.50;99.90;;;;;;5012602;28;20042;-71
2024/01/26 00:14:03;;;;;;;8.32;2.88;;;-0.50;99.90;;;;;;4994926;28;20018;-71
2024/01/26 00:16:29;;;;;;;5.25;2.50;;;-0.50;99.90;;;;;;5012611;28;20025;-72
2024/01/26 00:18:54;;;;;;;7.15;2.83;;;-0.50;99.90;;;;;;5012789;28;20401;-72
2024/01/26 00:21:20;;;;;;;5.93;2.58;;;-0.50;99.90;;;;;;5012608;28;20396;-72
2024/01/26 00:23:45;;;;;;;10.88;2.78;;;-0.60;99.90;;;;;;5012536;28;20033;-72
2024/01/26 00:26:14;;;;;;;8.48;3.63;;;-0.60;99.90;;;;;;4995583;28;20036;-71
2024/01/26 00:28:40;;;;;;;6.93;2.53;;;-0.60;99.90;;;;;;4996320;28;20036;-72
2024/01/26 00:31:06;;;;;;;7.38;2.65;;;-0.60;99.90;;;;;;5014280;28;20462;-71
2024/01/26 00:33:33;;;;;;;7.60;2.92;;;-0.60;99.90;;;;;;4997065;28;20018;-72
2024/01/26 00:35:59;;;;;;;6.05;2.58;;;-0.60;99.90;;;;;;5012387;28;20057;-72
2024/01/26 00:38:25;;;;;;;6.15;3.25;;;-0.60;99.90;;;;;;4994725;28;20033;-73
2024/01/26 00:40:51;;;;;;;8.02;2.75;;;-0.60;99.90;;;;;;4994422;28;20073;-72
2024/01/26 00:43:19;;;;;;;9.15;2.35;;;-0.70;99.90;;;;;;4994549;28;20033;-71
2024/01/26 00:45:44;;;;;;;9.45;3.72;;;-0.70;99.90;;;;;;5012352;28;20198;-72
2024/01/26 00:48:10;;;;;;;7.25;2.35;;;-0.60;99.90;;;;;;4994602;28;20117;-72
2024/01/26 00:50:36;;;;;;;8.18;3.53;;;-0.60;99.90;;;;;;5012175;28;20029;-72
2024/01/26 00:53:02;;;;;;;5.57;2.38;;;-0.60;99.90;;;;;;5012347;28;20029;-72
2024/01/26 00:55:29;;;;;;;2.40;2.20;;;-0.70;99.90;;;;;;5011944;28;20036;-72
2024/01/26 00:57:59;;;;;;;6.93;2.70;;;-0.70;99.90;;;;;;4994488;28;20109;-71
2024/01/26 01:00:25;;;;;;;5.75;2.78;;;-0.70;99.90;;;;;;4994558;28;20022;-71
2024/01/26 01:02:53;;;;;;;9.00;3.45;;;-0.60;99.90;;;;;;4994771;28;20507;-72
2024/01/26 01:05:19;;;;;;;6.80;2.22;;;-0.70;99.90;;;;;;5011873;28;20033;-71
2024/01/26 01:07:45;;;;;;;7.72;2.33;;;-0.70;99.90;;;;;;5011774;28;20076;-72
2024/01/26 01:10:11;;;;;;;6.95;3.45;;;-0.70;99.90;;;;;;5011783;28;20022;-72
2024/01/26 01:12:43;;;;;;;3.58;2.80;;;-0.70;99.90;;;;;;5011884;28;20080;-72
2024/01/26 01:15:11;;;;;;;10.48;2.75;;;-0.70;99.90;;;;;;5011930;28;20029;-71
2024/01/26 01:17:42;;;;;;;4.75;3.00;;;-0.70;99.90;;;;;;4994376;28;20018;-72
2024/01/26 01:20:10;;;;;;;7.28;2.88;;;-0.80;99.90;;;;;;5011688;28;20018;-72
2024/01/26 01:22:37;;;;;;;7.63;3.35;;;-0.70;99.90;;;;;;4994057;28;20037;-74
2024/01/26 01:25:07;;;;;;;10.73;4.30;;;-0.80;99.90;;;;;;4994035;28;20100;-72
2024/01/26 01:27:35;;;;;;;6.35;3.15;;;-0.80;99.90;;;;;;5011945;28;20014;-72
2024/01/26 01:30:05;;;;;;;7.95;2.80;;;-0.80;99.90;;;;;;5011748;28;20496;-72
2024/01/26 01:32:31;;;;;;;6.70;3.97;;;-0.80;99.90;;;;;;5011802;28;20033;-72
2024/01/26 01:34:57;;;;;;;7.20;3.97;;;-0.80;99.90;;;;;;5011821;28;20082;-72
2024/01/26 01:37:23;;;;;;;7.90;3.67;;;-0.90;99.90;;;;;;5014464;28;20072;-72
2024/01/26 01:39:49;;;;;;;10.65;4.32;;;-0.90;99.90;;;;;;5015193;28;20111;-72
2024/01/26 01:42:15;;;;;;;11.23;3.67;;;-0.90;99.90;;;;;;5015353;28;20034;-72
2024/01/26 01:44:41;;;;;;;10.18;2.25;;;-0.80;99.90;;;;;;5015179;28;20018;-72
2024/01/26 01:47:09;;;;;;;4.35;3.08;;;-0.90;99.90;;;;;;4997545;28;20112;-72
2024/01/26 01:49:35;;;;;;;8.23;3.00;;;-0.90;99.90;;;;;;5014696;28;20029;-72
2024/01/26 01:52:05;;;;;;;6.63;2.47;;;-1.00;99.90;;;;;;5014876;28;20018;-72
2024/01/26 01:54:31;;;;;;;6.10;2.40;;;-1.00;99.90;;;;;;5014850;28;20108;-72
2024/01/26 01:56:57;;;;;;;8.88;3.03;;;-1.00;99.90;;;;;;5014978;28;20072;-72
2024/01/26 01:59:23;;;;;;;13.77;2.88;;;-0.90;99.90;;;;;;5014709;28;20025;-73
2024/01/26 02:01:49;;;;;;;5.03;2.90;;;-1.00;99.90;;;;;;5014941;28;20401;-72
2024/01/26 02:04:15;;;;;;;5.93;2.65;;;-0.90;99.90;;;;;;5014656;28;20084;-72
2024/01/26 02:06:41;;;;;;;4.75;2.95;;;-0.90;99.90;;;;;;5014739;28;20026;-72
2024/01/26 02:09:06;;;;;;;6.00;2.35;;;-1.00;99.90;;;;;;4996988;28;20026;-72
2024/01/26 02:11:32;;;;;;;5.07;2.63;;;-1.00;99.90;;;;;;5014618;28;20113;-71
2024/01/26 02:13:59;;;;;;;6.20;1.55;;;-1.00;99.90;;;;;;5014576;28;20049;-71
2024/01/26 02:16:25;;;;;;;3.55;2.55;;;-1.00;99.90;;;;;;4996915;28;20026;-72
2024/01/26 02:18:50;;;;;;;4.00;2.38;;;-1.00;99.90;;;;;;5014200;28;20097;-72
2024/01/26 02:21:16;;;;;;;3.30;2.85;;;-1.00;99.90;;;;;;5014601;28;20022;-71
2024/01/26 02:23:43;;;;;;;6.00;3.08;;;-1.10;99.90;;;;;;5014369;28;20037;-72
2024/01/26 02:26:09;;;;;;;4.85;2.53;;;-1.10;99.90;;;;;;5014251;28;20480;-71
2024/01/26 02:28:35;;;;;;;5.57;2.45;;;-1.10;99.90;;;;;;5014433;28;20144;-72
2024/01/26 02:31:01;;;;;;;5.50;2.67;;;-1.20;99.90;;;;;;5014222;28;20033;-72
2024/01/26 02:33:26;;;;;;;7.07;2.60;;;-1.20;99.90;;;;;;5013813;28;20026;-72
2024/01/26 02:35:52;;;;;;;4.28;2.50;;;-1.20;99.90;;;;;;5014340;28;20034;-71
2024/01/26 02:38:18;;;;;;;5.18;2.33;;;-1.20;99.90;;;;;;4996630;28;20479;-72
2024/01/26 02:40:44;;;;;;;3.83;1.65;;;-1.20;99.90;;;;;;5013827;28;20065;-72
2024/01/26 02:43:10;;;;;;;3.15;1.45;;;-1.20;99.90;;;;;;4996697;28;20030;-72
2024/01/26 02:45:35;;;;;;;7.18;2.35;;;-1.20;99.90;;;;;;5014006;28;20017;-72
2024/01/26 02:48:01;;;;;;;5.63;2.13;;;-1.20;99.90;;;;;;5012819;28;20018;-71
2024/01/26 02:50:26;;;;;;;6.65;2.78;;;-1.20;99.90;;;;;;4996302;28;20018;-71
2024/01/26 02:52:52;;;;;;;4.10;2.65;;;-1.20;99.90;;;;;;5014197;28;20091;-72
2024/01/26 02:55:17;;;;;;;5.38;2.53;;;-1.20;99.90;;;;;;4996160;28;20033;-74
2024/01/26 02:57:43;;;;;;;5.43;2.65;;;-1.20;99.90;;;;;;4996244;28;20026;-72
2024/01/26 03:00:09;;;;;;;2.80;1.45;;;-1.30;99.90;;;;;;5013509;28;20037;-72
2024/01/26 03:02:35;;;;;;;5.45;2.38;;;-1.30;99.90;;;;;;4996187;28;20029;-72
2024/01/26 03:05:00;;;;;;;3.75;1.70;;;-1.30;99.90;;;;;;5013839;28;20100;-71
2024/01/26 03:07:26;;;;;;;2.22;2.03;;;-1.20;99.90;;;;;;5013942;28;20027;-72
2024/01/26 03:09:52;;;;;;;5.47;2.17;;;-1.20;99.90;;;;;;4995741;28;20029;-72
2024/01/26 03:12:17;;;;;;;8.73;2.40;;;-1.30;99.90;;;;;;5013754;28;20033;-72
2024/01/26 03:14:43;;;;;;;9.77;1.83;;;-1.30;99.90;;;;;;5013302;28;20018;-72
2024/01/26 03:17:08;;;;;;;5.38;1.80;;;-1.30;99.90;;;;;;5013694;28;20034;-72
2024/01/26 03:19:36;;;;;;;12.15;2.55;;;-1.30;99.90;;;;;;5013402;28;20401;-72
2024/01/26 03:22:01;;;;;;;5.43;2.65;;;-1.30;99.90;;;;;;5013447;28;20103;-71
2024/01/26 03:24:28;;;;;;;4.45;2.15;;;-1.20;99.90;;;;;;5027528;23;20481;-74
2024/01/26 03:26:54;;;;;;;3.88;2.50;;;-1.20;99.90;;;;;;4993602;28;20045;-73
2024/01/26 03:29:20;;;;;;;7.20;1.88;;;-1.20;99.90;;;;;;4993416;28;20028;-74
2024/01/26 03:31:45;;;;;;;5.85;2.28;;;-1.10;99.90;;;;;;4993767;28;20533;-74
2024/01/26 03:34:11;;;;;;;3.42;2.47;;;-1.10;99.90;;;;;;4993652;28;20022;-73
2024/01/26 03:36:37;;;;;;;7.15;2.30;;;-1.00;99.90;;;;;;4976257;28;20480;-73
2024/01/26 03:39:03;;;;;;;2.65;1.75;;;-1.00;99.90;;;;;;4993358;28;20034;-73
2024/01/26 03:41:29;;;;;;;7.95;1.92;;;-1.00;99.90;;;;;;4993474;28;20026;-74
2024/01/26 03:43:55;;;;;;;7.00;2.25;;;-0.90;99.90;;;;;;4993315;28;20436;-73
2024/01/26 03:46:21;;;;;;;4.85;2.00;;;-0.90;99.90;;;;;;4993266;28;20088;-73
2024/01/26 03:48:47;;;;;;;10.00;2.53;;;-0.80;99.90;;;;;;4975714;28;20022;-74
2024/01/26 03:51:13;;;;;;;6.53;2.75;;;-0.80;99.90;;;;;;4976014;28;20512;-73
2024/01/26 03:53:38;;;;;;;5.75;2.60;;;-0.70;99.90;;;;;;4993342;28;20022;-74
2024/01/26 03:56:04;;;;;;;5.03;2.50;;;-0.70;99.90;;;;;;4975834;28;20026;-74
2024/01/26 03:58:30;;;;;;;5.85;2.17;;;-0.60;99.90;;;;;;4977354;28;20093;-75
2024/01/26 04:00:56;;;;;;;1.63;1.42;;;-0.60;99.90;;;;;;4999960;28;20022;-74
2024/01/26 04:03:21;;;;;;;4.32;2.63;;;-0.60;99.90;;;;;;4995540;28;20547;-74
2024/01/26 04:05:47;;;;;;;10.48;3.33;;;-0.60;99.90;;;;;;4975858;28;20109;-73
2024/01/26 04:08:13;;;;;;;7.47;2.95;;;-0.50;99.90;;;;;;4993017;28;20023;-74
2024/01/26 04:10:39;;;;;;;6.07;2.85;;;-0.50;99.90;;;;;;4992899;28;20057;-74
2024/01/26 04:13:05;;;;;;;7.15;3.17;;;-0.50;99.90;;;;;;4975680;28;20465;-73
2024/01/26 04:15:31;;;;;;;9.18;2.75;;;-0.50;99.90;;;;;;4993013;28;20481;-74
2024/01/26 04:17:57;;;;;;;6.68;2.05;;;-0.50;99.90;;;;;;4992868;28;20037;-74
2024/01/26 04:20:23;;;;;;;2.90;1.83;;;-0.40;99.90;;;;;;4992861;28;20448;-74
2024/01/26 04:22:49;;;;;;;8.15;2.05;;;-0.40;99.90;;;;;;4975474;28;20126;-74
2024/01/26 04:25:14;;;;;;;7.85;2.78;;;-0.50;99.90;;;;;;4992503;28;20047;-74
2024/01/26 04:27:40;;;;;;;4.28;1.92;;;-0.50;99.90;;;;;;4993071;28;20061;-74
2024/01/26 04:30:06;;;;;;;3.30;1.85;;;-0.40;99.90;;;;;;4975472;28;20023;-73
2024/01/26 04:32:32;;;;;;;5.43;2.35;;;-0.40;99.90;;;;;;4975361;28;20022;-73
2024/01/26 04:34:57;;;;;;;14.80;2.47;;;-0.40;99.90;;;;;;4992720;28;20030;-73
2024/01/26 04:37:23;;;;;;;2.75;2.47;;;-0.30;99.90;;;;;;4974884;28;20065;-73
2024/01/26 04:39:50;;;;;;;9.10;2.10;;;-0.30;99.90;;;;;;4992868;28;20045;-73
2024/01/26 04:42:16;;;;;;;5.00;2.72;;;-0.40;99.90;;;;;;4975127;28;20474;-73
2024/01/26 04:44:42;;;;;;;17.55;5.32;;;-0.20;99.90;;;;;;4993106;28;20073;-72
2024/01/26 04:47:08;;;;;;;33.40;12.00;;;-0.20;99.90;;;;;;4992540;28;20026;-73
2024/01/26 04:49:33;;;;;;;13.63;5.47;;;-0.20;99.90;;;;;;4974997;28;20413;-73
2024/01/26 04:52:01;;;;;;;5.07;1.98;;;-0.10;99.90;;;;;;4992430;28;20018;-73
2024/01/26 04:54:27;;;;;;;3.90;2.25;;;-0.10;99.90;;;;;;4974826;28;20113;-73
2024/01/26 04:56:53;;;;;;;6.60;2.90;;;-0.10;99.90;;;;;;4992252;28;20115;-74
2024/01/26 04:59:19;;;;;;;4.70;1.70;;;-0.10;99.90;;;;;;4992401;28;20030;-73
2024/01/26 05:01:44;;;;;;;7.20;2.15;;;-0.10;99.90;;;;;;4992674;28;20026;-72
2024/01/26 05:04:10;;;;;;;4.43;1.77;;;0.00;99.90;;;;;;4975255;28;20038;-73
2024/01/26 05:06:35;;;;;;;3.83;2.40;;;0.00;99.90;;;;;;4975219;28;20061;-74
2024/01/26 05:09:01;;;;;;;6.55;3.25;;;0.00;99.90;;;;;;4974731;28;20543;-74
2024/01/26 05:11:27;;;;;;;5.70;2.35;;;0.10;99.90;;;;;;4994601;28;20022;-74
2024/01/26 05:13:52;;;;;;;5.38;1.80;;;0.10;99.90;;;;;;4984481;28;20584;-74
2024/01/26 05:16:18;;;;;;;7.63;2.60;;;0.10;99.90;;;;;;5000327;28;20050;-73
2024/01/26 05:18:44;;;;;;;6.25;2.63;;;0.10;99.90;;;;;;4979020;28;20077;-74
2024/01/26 05:21:09;;;;;;;6.20;2.08;;;0.10;99.90;;;;;;4996311;28;20034;-74
2024/01/26 05:23:35;;;;;;;7.47;1.73;;;0.10;99.90;;;;;;4978758;28;20037;-73
2024/01/26 05:26:01;;;;;;;4.18;2.10;;;0.20;99.90;;;;;;4995833;28;20054;-73
2024/01/26 05:28:26;;;;;;;4.40;2.60;;;0.30;99.90;;;;;;4978439;28;20495;-74
2024/01/26 05:30:52;;;;;;;9.68;1.88;;;0.30;99.90;;;;;;4995703;28;20026;-73
2024/01/26 05:33:18;;;;;;;4.90;3.20;;;0.30;99.90;;;;;;4996136;28;20098;-73
2024/01/26 05:35:45;;;;;;;7.00;2.22;;;0.30;99.90;;;;;;4995913;28;20019;-74
2024/01/26 05:38:11;;;;;;;10.38;2.72;;;0.40;99.90;;;;;;4995815;28;20027;-73
2024/01/26 05:40:36;;;;;;;3.60;2.47;;;0.40;99.90;;;;;;4978301;28;20057;-73
2024/01/26 05:43:02;;;;;;;6.13;2.25;;;0.40;99.90;;;;;;4995709;28;20030;-73
2024/01/26 05:45:28;;;;;;;4.13;2.15;;;0.40;99.90;;;;;;4977668;28;20033;-73
2024/01/26 05:47:54;;;;;;;8.02;2.17;;;0.40;99.90;;;;;;4995678;28;20124;-73
2024/01/26 05:50:21;;;;;;;7.70;1.80;;;0.40;99.90;;;;;;4995545;28;20114;-73
2024/01/26 05:52:48;;;;;;;9.98;2.40;;;0.50;99.90;;;;;;5005562;28;20050;-74
2024/01/26 05:55:14;;;;;;;4.30;2.30;;;0.50;99.90;;;;;;4981954;28;20022;-74
2024/01/26 05:57:40;;;;;;;8.05;2.95;;;0.50;99.90;;;;;;4987153;28;20022;-74
2024/01/26 06:00:07;;;;;;;6.18;2.70;;;0.60;99.90;;;;;;5007082;28;20058;-74
2024/01/26 06:02:32;;;;;;;7.20;2.30;;;0.50;99.90;;;;;;5008528;28;20018;-74
2024/01/26 06:04:58;;;;;;;7.28;3.17;;;0.50;99.90;;;;;;5008599;28;20032;-74
2024/01/26 06:07:23;;;;;;;26.88;12.65;;;0.40;99.90;;;;;;5001579;28;20101;-74
2024/01/26 06:09:49;;;;;;;13.15;6.93;;;0.50;99.90;;;;;;4995364;28;20117;-74
2024/01/26 06:12:15;;;;;;;9.60;3.88;;;0.40;99.90;;;;;;4995264;28;20054;-74
2024/01/26 06:14:41;;;;;;;11.07;2.63;;;0.50;99.90;;;;;;4995037;28;20046;-73
2024/01/26 06:17:06;;;;;;;10.07;3.20;;;0.50;99.90;;;;;;4994992;28;20023;-74
2024/01/26 06:19:32;;;;;;;3.90;2.15;;;0.50;99.90;;;;;;4994830;28;20023;-72
2024/01/26 06:21:57;;;;;;;4.10;2.97;;;1.00;99.90;;;;;;4994758;28;20023;-74
2024/01/26 06:24:23;;;;;;;4.00;2.40;;;1.00;99.90;;;;;;4999537;28;20042;-73
2024/01/26 06:26:49;;;;;;;5.63;2.22;;;0.90;99.90;;;;;;5002916;28;20030;-73
2024/01/26 06:29:14;;;;;;;6.93;2.65;;;0.80;99.90;;;;;;4998024;28;20561;-74
2024/01/26 06:31:40;;;;;;;9.15;2.67;;;0.80;99.90;;;;;;4994267;28;20084;-73
2024/01/26 06:34:06;;;;;;;5.45;2.97;;;0.80;99.90;;;;;;4994286;28;20022;-74
2024/01/26 06:36:31;;;;;;;2.28;1.77;;;0.70;99.90;;;;;;4994438;28;20109;-73
2024/01/26 06:38:57;;;;;;;2.60;2.05;;;0.70;99.90;;;;;;4976456;28;20022;-73
2024/01/26 06:41:23;;;;;;;6.43;2.45;;;0.70;99.90;;;;;;4994453;28;20038;-73
2024/01/26 06:43:52;;;;;;;6.18;3.15;;;0.80;99.90;;;;;;4976800;28;20125;-73
2024/01/26 06:46:22;;;;;;;4.22;2.58;;;0.80;99.90;;;;;;4994030;28;20023;-73
2024/01/26 06:48:48;;;;;;;7.40;3.53;;;0.80;99.90;;;;;;4993978;28;20014;-73
2024/01/26 06:51:14;;;;;;;14.68;3.30;;;0.90;99.90;;;;;;4976840;28;20037;-73
2024/01/26 06:53:40;;;;;;;9.50;3.15;;;0.90;99.90;;;;;;4976821;28;20469;-73
2024/01/26 06:56:07;;;;;;;12.02;3.22;;;0.90;99.90;;;;;;4993821;28;20117;-74
2024/01/26 06:58:33;;;;;;;3.63;2.55;;;0.90;99.90;;;;;;4976431;28;20041;-74
2024/01/26 07:00:59;;;;;;;7.63;2.83;;;0.90;99.90;;;;;;4976723;28;20026;-74
2024/01/26 07:03:25;;;;;;;6.10;3.50;;;0.90;99.90;;;;;;4994000;28;20073;-74
2024/01/26 07:05:50;;;;;;;14.07;3.38;;;0.90;99.90;;;;;;4993634;28;20034;-74
2024/01/26 07:08:16;;;;;;;6.28;2.92;;;1.00;99.90;;;;;;4993709;28;20029;-73
2024/01/26 07:10:42;;;;;;;5.30;2.72;;;1.00;99.90;;;;;;4976146;28;20029;-74
2024/01/26 07:13:07;;;;;;;12.35;3.15;;;1.00;99.90;;;;;;4993641;28;20026;-74
2024/01/26 07:15:33;;;;;;;6.18;2.95;;;1.00;99.90;;;;;;4993746;28;20052;-73
2024/01/26 07:17:59;;;;;;;6.82;3.05;;;1.20;99.90;;;;;;4993827;28;20031;-73
2024/01/26 07:20:24;;;;;;;6.50;3.55;;;1.10;99.90;;;;;;4993457;28;20029;-72
2024/01/26 07:22:50;;;;;;;4.80;2.92;;;1.10;99.90;;;;;;4993602;28;20072;-72
2024/01/26 07:25:19;;;;;;;8.90;2.55;;;1.10;99.90;;;;;;4975658;28;20042;-73
2024/01/26 07:27:46;;;;;;;8.20;3.00;;;1.10;99.90;;;;;;4993527;28;20026;-73
2024/01/26 07:30:13;;;;;;;5.30;3.17;;;1.10;99.90;;;;;;4993704;28;20477;-73
2024/01/26 07:32:42;;;;;;;8.25;2.88;;;1.10;99.90;;;;;;4975964;28;20100;-72
2024/01/26 07:35:07;;;;;;;8.43;3.60;;;1.20;99.90;;;;;;4992635;28;20053;-73
2024/01/26 07:37:33;;;;;;;6.10;2.75;;;1.30;99.90;;;;;;5006278;28;20022;-73
2024/01/26 07:40:01;;;;;;;6.28;3.13;;;1.40;99.90;;;;;;4996581;28;20022;-74
2024/01/26 07:42:27;;;;;;;10.40;4.35;;;1.40;99.90;;;;;;4975940;28;20019;-73
2024/01/26 07:44:52;;;;;;;8.52;3.92;;;1.40;99.90;;;;;;4993158;28;20018;-73
2024/01/26 07:47:18;;;;;;;10.07;3.55;;;1.40;99.90;;;;;;4975438;28;20058;-73
2024/01/26 07:49:44;;;;;;;7.22;3.72;;;1.40;99.90;;;;;;4992714;28;20393;-73
2024/01/26 07:52:09;;;;;;;6.93;4.20;;;1.50;99.90;;;;;;4992920;28;20018;-73
2024/01/26 07:54:35;;;;;;;8.07;2.92;;;1.50;99.90;;;;;;4975094;28;20030;-73
2024/01/26 07:57:01;;;;;;;6.18;2.95;;;1.50;99.90;;;;;;4975649;28;20513;-72
2024/01/26 07:59:26;;;;;;;7.32;3.42;;;1.60;99.90;;;;;;4992762;28;20072;-73
2024/01/26 08:01:52;;;;;;;7.20;2.95;;;1.70;99.90;;;;;;4991640;28;20027;-73
2024/01/26 08:04:18;;;;;;;10.23;4.07;;;1.80;99.90;;;;;;4975612;28;20398;-73
2024/01/26 08:06:44;;;;;;;12.35;3.20;;;2.10;99.90;;;;;;4975495;28;20114;-73
2024/01/26 08:09:10;;;;;;;13.27;4.18;;;2.00;99.90;;;;;;4991859;28;20026;-73
2024/01/26 08:11:36;;;;;;;8.85;3.75;;;2.00;99.90;;;;;;4975225;28;20026;-73
2024/01/26 08:14:02;;;;;;;8.38;3.22;;;2.00;99.90;;;;;;4992655;28;20028;-73
2024/01/26 08:16:28;;;;;;;10.55;4.45;;;2.00;99.90;;;;;;4975031;28;20050;-73
2024/01/26 08:18:54;;;;;;;10.43;4.88;;;2.10;99.90;;;;;;4992080;28;20042;-73
2024/01/26 08:21:20;;;;;;;9.18;4.50;;;2.10;99.90;;;;;;4975150;28;20481;-74
2024/01/26 08:23:46;;;;;;;11.85;4.53;;;2.30;99.90;;;;;;4992505;28;20111;-73
2024/01/26 08:26:12;;;;;;;9.30;4.05;;;2.40;99.90;;;;;;4992514;28;20125;-73
2024/01/26 08:28:37;;;;;;;7.70;2.90;;;2.60;99.90;;;;;;4992251;28;20469;-74
2024/01/26 08:31:04;;;;;;;6.40;3.05;;;2.60;99.90;;;;;;4974453;28;20129;-74
2024/01/26 08:33:30;;;;;;;5.47;2.72;;;2.70;99.90;;;;;;4991961;28;20014;-73
2024/01/26 08:35:56;;;;;;;5.90;2.97;;;2.80;99.90;;;;;;4992309;28;20499;-71
2024/01/26 08:38:21;;;;;;;8.05;2.60;;;3.00;99.90;;;;;;4992280;28;20030;-71
2024/01/26 08:40:47;;;;;;;7.57;2.75;;;3.20;99.90;;;;;;4992263;28;20026;-74
2024/01/26 08:43:12;;;;;;;7.55;2.58;;;3.40;99.90;;;;;;4991534;28;20096;-74
2024/01/26 08:45:38;;;;;;;6.35;2.90;;;3.60;99.90;;;;;;4994040;28;20110;-74
2024/01/26 08:48:04;;;;;;;8.45;2.85;;;3.60;99.90;;;;;;4979006;28;20026;-74
2024/01/26 08:50:30;;;;;;;3.63;2.45;;;3.60;99.90;;;;;;5003849;28;20023;-74
2024/01/26 08:52:56;;;;;;;5.35;2.78;;;4.50;99.90;;;;;;4983508;28;20105;-74
2024/01/26 08:55:22;;;;;;;15.38;3.63;;;4.90;99.90;;;;;;4979275;28;20030;-74
2024/01/26 08:57:48;;;;;;;8.77;3.58;;;4.80;99.90;;;;;;4978975;28;20133;-73
2024/01/26 09:00:15;;;;;;;10.15;3.72;;;4.50;99.90;;;;;;4978531;28;20488;-74
2024/01/26 09:02:41;;;;;;;9.25;3.38;;;4.40;99.90;;;;;;4995717;28;20101;-74
2024/01/26 09:05:08;;;;;;;6.85;3.08;;;4.40;99.90;;;;;;4978463;28;20026;-75
2024/01/26 09:07:33;;;;;;;6.38;2.38;;;4.40;99.90;;;;;;4995852;28;20030;-75
2024/01/26 09:09:59;;;;;;;9.82;3.25;;;4.40;99.90;;;;;;4995976;28;20015;-73
2024/01/26 09:12:25;;;;;;;6.65;2.53;;;4.40;99.90;;;;;;4995972;28;20496;-74
2024/01/26 09:14:50;;;;;;;5.35;3.15;;;4.60;99.90;;;;;;4995814;28;20037;-74
2024/01/26 09:17:16;;;;;;;6.55;3.58;;;4.60;99.90;;;;;;4978421;28;20035;-74
2024/01/26 09:19:42;;;;;;;7.30;3.40;;;4.80;99.90;;;;;;4995557;28;20034;-73
2024/01/26 09:22:08;;;;;;;4.93;3.08;;;5.60;99.90;;;;;;5001300;28;20062;-75
2024/01/26 09:24:34;;;;;;;7.32;2.42;;;6.10;99.90;;;;;;5016673;23;20392;-73
2024/01/26 09:27:00;;;;;;;6.82;2.45;;;6.00;96.20;;;;;;4978116;28;20034;-72
2024/01/26 09:29:26;;;;;;;9.05;2.88;;;5.80;95.60;;;;;;4977976;28;20397;-72
2024/01/26 09:31:54;;;;;;;16.88;3.20;;;5.60;95.90;;;;;;4995960;28;20025;-73
2024/01/26 09:34:20;;;;;;;5.50;2.88;;;7.20;99.90;;;;;;4995674;28;20018;-72
2024/01/26 09:36:46;;;;;;;16.88;3.28;;;7.50;99.90;;;;;;4995516;28;20496;-73
2024/01/26 09:39:12;;;;;;;6.78;3.63;;;7.80;96.40;;;;;;4977649;28;20065;-74
2024/01/26 09:41:38;;;;;;;7.70;3.42;;;8.10;96.20;;;;;;4995610;28;20019;-72
2024/01/26 09:44:04;;;;;;;8.20;3.67;;;7.50;92.10;;;;;;4995537;28;20421;-72
2024/01/26 09:46:33;;;;;;;13.80;4.15;;;6.70;93.10;;;;;;4977892;28;20026;-72
2024/01/26 09:48:59;;;;;;;13.13;7.32;;;6.30;94.50;;;;;;4995295;28;20080;-72
2024/01/26 09:51:30;;;;;;;14.00;7.10;;;6.20;95.10;;;;;;4977827;28;20022;-74
2024/01/26 09:54:00;;;;;;;17.27;5.45;;;6.00;95.80;;;;;;4995290;28;20027;-74
2024/01/26 09:56:26;;;;;;;6.03;3.28;;;6.00;96.70;;;;;;4977305;28;20493;-73
2024/01/26 09:58:52;;;;;;;9.93;4.05;;;5.80;97.00;;;;;;4994935;28;20045;-73
2024/01/26 10:01:21;;;;;;;9.15;4.35;;;5.70;98.00;;;;;;4995252;28;20545;-73
2024/01/26 10:03:47;;;;;;;8.25;4.25;;;5.80;98.00;;;;;;4977829;28;20492;-73
2024/01/26 10:06:13;;;;;;;9.13;4.20;;;5.90;97.50;;;;;;4995023;28;20536;-73
2024/01/26 10:08:39;;;;;;;13.82;3.88;;;5.80;97.80;;;;;;4994967;28;20054;-73
2024/01/26 10:11:05;;;;;;;7.53;4.45;;;5.80;97.50;;;;;;4995096;28;20061;-73
2024/01/26 10:13:32;;;;;;;14.57;5.00;;;5.80;97.90;;;;;;4995101;28;20054;-72
2024/01/26 10:16:23;;;;;;;13.70;4.03;;;6.00;96.50;;;;;;4995156;28;20026;-72
2024/01/26 10:18:49;;;;;;;10.57;3.65;;;6.00;95.90;;;;;;4992792;28;20444;-73
2024/01/26 10:21:16;;;;;;;9.10;2.90;;;6.00;95.80;;;;;;4994868;28;20038;-75
2024/01/26 10:23:42;;;;;;;13.13;2.90;;;5.90;95.80;;;;;;4977391;28;20088;-73
2024/01/26 10:26:11;;;;;;;8.40;2.83;;;5.90;96.10;;;;;;4995017;28;20031;-73
2024/01/26 10:28:38;;;;;;;9.48;3.30;;;6.10;97.60;;;;;;4994573;28;20019;-75
2024/01/26 10:31:04;;;;;;;7.40;2.80;;;7.10;97.70;;;;;;4977482;28;20109;-72
2024/01/26 10:33:33;;;;;;;6.90;2.72;;;7.00;94.70;;;;;;4994932;28;20022;-72
2024/01/26 10:36:01;;;;;;;7.43;2.78;;;7.00;94.10;;;;;;4977790;28;20038;-72
2024/01/26 10:38:30;;;;;;;8.73;3.60;;;6.90;94.00;;;;;;4995284;28;20030;-73
2024/01/26 10:41:04;;;;;;;12.90;5.28;;;6.90;94.10;;;;;;4980536;28;20045;-73
2024/01/26 10:43:31;;;;;;;18.95;7.45;;;7.00;94.20;;;;;;4998254;28;20506;-73
2024/01/26 10:45:57;;;;;;;7.43;4.28;;;7.10;94.00;;;;;;4999903;28;20116;-72
2024/01/26 10:48:24;;;;;;;17.27;3.65;;;7.10;94.20;;;;;;4996231;28;20101;-73
2024/01/26 10:50:50;;;;;;;10.32;4.03;;;7.20;94.40;;;;;;4994200;28;20105;-72
2024/01/26 10:53:19;;;;;;;12.35;4.65;;;7.30;94.30;;;;;;4976967;28;20109;-73
2024/01/26 10:55:48;;;;;;;11.32;3.95;;;7.40;94.30;;;;;;4994504;28;20053;-73
2024/01/26 10:58:14;;;;;;;13.93;4.32;;;7.50;94.20;;;;;;4994296;28;20037;-73
2024/01/26 11:00:39;;;;;;;15.70;3.95;;;7.60;94.10;;;;;;4994341;28;20109;-73
2024/01/26 11:03:05;;;;;;;9.90;3.20;;;7.40;93.40;;;;;;4976903;28;20092;-74
2024/01/26 11:05:31;;;;;;;7.03;2.85;;;7.40;93.70;;;;;;4994456;28;20030;-74
2024/01/26 11:08:00;;;;;;;15.52;2.80;;;7.50;93.90;;;;;;4993435;28;20106;-74
2024/01/26 11:10:28;;;;;;;8.32;2.63;;;7.40;93.90;;;;;;4993724;28;20118;-72
2024/01/26 11:13:06;;;;;;;7.70;2.70;;;7.60;93.70;;;;;;4994235;28;20022;-73
2024/01/26 11:15:34;;;;;;;3.22;2.05;;;7.90;93.50;;;;;;4977681;28;20029;-73
2024/01/26 11:18:03;;;;;;;8.32;2.70;;;7.90;92.60;;;;;;4976839;28;20042;-72
2024/01/26 11:20:35;;;;;;;16.20;2.72;;;8.00;91.90;;;;;;4976363;28;20026;-71
2024/01/26 11:23:04;;;;;;;7.18;2.75;;;8.20;91.80;;;;;;4993885;28;20018;-73
2024/01/26 11:25:43;;;;;;;11.65;2.65;;;8.20;90.50;;;;;;4976029;28;20057;-72
2024/01/26 11:28:09;;;;;;;11.05;2.92;;;8.00;90.90;;;;;;4993732;28;20029;-73
2024/01/26 11:30:36;;;;;;;10.20;3.97;;;8.00;91.30;;;;;;4993422;28;20390;-72
2024/01/26 11:33:02;;;;;;;10.68;4.15;;;8.10;91.20;;;;;;4993642;28;20026;-73
2024/01/26 11:35:28;;;;;;;13.82;3.65;;;8.10;90.90;;;;;;4976087;28;20485;-73
2024/01/26 11:37:56;;;;;;;7.95;3.97;;;8.00;91.20;;;;;;4993541;28;20034;-74
2024/01/26 11:40:25;;;;;;;17.40;4.20;;;8.10;90.70;;;;;;4975969;28;20034;-72
2024/01/26 11:42:52;;;;;;;9.40;3.30;;;8.20;90.90;;;;;;4993762;28;20403;-72
2024/01/26 11:45:43;;;;;;;8.18;2.50;;;8.30;90.80;;;;;;4993460;28;20045;-73
2024/01/26 11:48:09;;;;;;;13.27;3.72;;;8.40;90.70;;;;;;4993561;28;20027;-73
2024/01/26 11:50:37;;;;;;;8.93;3.13;;;8.50;90.40;;;;;;4993571;28;20026;-73
2024/01/26 11:53:04;;;;;;;8.85;3.10;;;8.50;90.30;;;;;;4993945;28;20073;-73
2024/01/26 11:55:30;;;;;;;20.02;4.85;;;8.50;89.70;;;;;;4993781;28;20093;-73
2024/01/26 11:57:56;;;;;;;14.10;3.35;;;8.50;89.30;;;;;;4976381;28;20037;-73
2024/01/26 12:00:22;;;;;;;12.93;5.18;;;8.50;88.70;;;;;;4993693;28;20097;-73
2024/01/26 12:02:49;;;;;;;11.50;3.00;;;8.60;89.60;;;;;;4977201;28;20493;-73
2024/01/26 12:05:18;;;;;;;11.55;3.75;;;8.80;88.60;;;;;;4995174;28;20054;-73
2024/01/26 12:07:44;;;;;;;13.80;3.97;;;8.80;88.90;;;;;;4994564;28;20062;-73
2024/01/26 12:10:13;;;;;;;14.82;3.28;;;8.80;88.90;;;;;;4994429;28;20026;-73
2024/01/26 12:12:44;;;;;;;9.25;2.72;;;8.90;87.00;;;;;;4993557;28;20018;-72
2024/01/26 12:15:10;;;;;;;21.20;4.57;;;8.90;86.30;;;;;;4978196;28;20018;-73
2024/01/26 12:17:36;;;;;;;16.10;4.57;;;9.10;87.20;;;;;;4994637;28;20033;-75
2024/01/26 12:20:10;;;;;;;13.82;3.42;;;9.20;86.00;;;;;;4994182;28;20026;-73
2024/01/26 12:22:36;;;;;;;23.70;4.03;;;9.30;85.50;;;;;;4979052;28;20022;-73
2024/01/26 12:25:07;;;;;;;8.20;3.25;;;9.30;84.30;;;;;;4980648;28;20037;-75
2024/01/26 12:27:34;;;;;;;14.18;3.45;;;9.10;83.60;;;;;;4996870;28;20058;-73
2024/01/26 12:30:00;;;;;;;9.77;3.15;;;9.10;84.90;;;;;;4997135;28;20022;-72
2024/01/26 12:32:25;;;;;;;13.55;3.60;;;9.00;85.10;;;;;;4996753;28;20398;-72
2024/01/26 12:34:51;;;;;;;27.50;8.80;;;9.00;85.70;;;;;;4995212;28;20484;-76
2024/01/26 12:37:17;;;;;;;16.63;6.05;;;9.10;86.10;;;;;;4975350;28;20093;-73
2024/01/26 12:39:42;;;;;;;8.48;3.13;;;9.00;86.00;;;;;;4992740;28;20037;-73
2024/01/26 12:42:08;;;;;;;6.50;2.63;;;9.10;86.30;;;;;;4992763;28;20041;-73
2024/01/26 12:44:36;;;;;;;17.42;4.75;;;9.10;85.90;;;;;;4992956;28;20026;-72
2024/01/26 12:47:03;;;;;;;6.43;3.00;;;9.10;85.80;;;;;;4992927;28;20507;-73